Time;durP1;ratioP1;P1;durP2;ratioP2;P2;SDS_P1;SDS_P2;PMS_P1;PMS_P2;Temp;Humidity;BMP_temperature;BMP_pressure;BME280_temperature;BME280_humidity;BME280_pressure;Samples;Min_cycle;Max_cycle;Signal;HPM_P1;HPM_P2
2022/01/23 00:02:16;;;;;;;;;;;;;;;8.71;64.71;101169.00;5010689;28;102507;-48
2022/01/23 00:04:42;;;;;;;;;;;;;;;8.71;64.92;101160.84;5011459;28;102353;-51
2022/01/23 00:07:11;;;;;;;;;;;;;;;8.71;64.53;101163.56;5017564;28;104401;-46
2022/01/23 00:09:38;;;;;;;;;;;;;;;8.72;64.66;101167.09;5011789;28;103649;-48
2022/01/23 00:12:09;;;;;;;;;;;;;;;8.72;64.60;101170.63;5010378;27;103386;-47
2022/01/23 00:17:21;;;;;;;;;;;;;;;8.70;64.90;101180.94;5005910;28;102215;-47
2022/01/23 00:19:49;;;;;;;;;;;;;;;8.71;64.50;101182.56;5004482;27;103981;-51
2022/01/23 00:22:15;;;;;;;;;;;;;;;8.71;65.31;101182.56;5016511;27;102220;-48
2022/01/23 00:30:25;;;;;;;;;;;;;;;8.70;64.96;101183.66;5013633;28;103886;-49
2022/01/23 00:32:53;;;;;;;;;;;;;;;8.71;64.45;101177.13;5015182;28;102994;-48
2022/01/23 00:35:19;;;;;;;;;;;;;;;8.70;64.82;101180.94;5015904;27;102448;-48
2022/01/23 00:37:45;;;;;;;;;;;;;;;8.70;64.36;101180.94;5015548;28;102801;-49
2022/01/23 00:40:11;;;;;;;;;;;;;;;8.70;64.56;101170.06;5014274;28;103882;-49
2022/01/23 00:42:37;;;;;;;;;;;;;;;8.70;64.41;101170.06;5015414;27;103631;-48
2022/01/23 00:47:54;;;;;;;;;;;;;;;8.70;64.26;101164.66;5010529;27;102182;-47
2022/01/23 00:50:21;;;;;;;;;;;;;;;8.70;64.40;101171.97;5013427;27;104525;-48
2022/01/23 00:52:47;;;;;;;;;;;;;;;8.70;64.66;101170.06;5016838;28;102471;-48
2022/01/23 00:55:13;;;;;;;;;;;;;;;8.69;65.07;101165.72;5014041;28;102462;-49
2022/01/23 00:57:39;;;;;;;;;;;;;;;8.70;64.73;101161.94;5017320;27;102252;-49
2022/01/23 01:00:06;;;;;;;;;;;;;;;8.70;64.70;101169.25;5008053;28;103880;-50
2022/01/23 01:02:33;;;;;;;;;;;;;;;8.70;65.10;101175.50;5013026;28;102453;-49
2022/01/23 01:04:59;;;;;;;;;;;;;;;8.71;64.27;101170.91;5010395;27;103512;-48
2022/01/23 01:07:26;;;;;;;;;;;;;;;8.70;64.83;101170.06;5008166;28;102227;-47
2022/01/23 01:09:58;;;;;;;;;;;;;;;8.70;64.77;101174.69;5011190;28;103900;-49
2022/01/23 01:12:29;;;;;;;;;;;;;;;8.70;65.33;101167.38;5013878;28;102982;-47
2022/01/23 01:15:23;;;;;;;;;;;;;;;8.69;64.52;101160.31;5010503;28;103806;-46
2022/01/23 01:31:10;;;;;;;;;;;;;;;8.69;64.74;101175.72;5004883;28;103866;-46
2022/01/23 01:33:50;;;;;;;;;;;;;;;8.70;64.51;101170.06;5010966;28;102439;-48
2022/01/23 01:36:23;;;;;;;;;;;;;;;8.69;64.58;101173.88;5004340;28;102190;-47
2022/01/23 01:38:51;;;;;;;;;;;;;;;8.69;65.26;101176.59;5011871;27;102218;-50
2022/01/23 01:41:18;;;;;;;;;;;;;;;8.69;64.98;101173.88;5010610;27;103993;-49
2022/01/23 01:43:45;;;;;;;;;;;;;;;8.69;65.03;101170.31;5009052;28;102410;-49
2022/01/23 01:46:11;;;;;;;;;;;;;;;8.68;65.30;101172.19;5013603;28;103583;-49
2022/01/23 01:48:38;;;;;;;;;;;;;;;8.69;64.50;101173.88;5017514;28;102127;-50
2022/01/23 01:51:06;;;;;;;;;;;;;;;8.69;64.71;101178.44;5014026;28;103832;-47
2022/01/23 01:53:33;;;;;;;;;;;;;;;8.69;63.98;101176.59;5012209;27;102055;-49
2022/01/23 01:56:01;;;;;;;;;;;;;;;8.69;64.48;101175.72;5013449;27;102936;-48
2022/01/23 01:58:57;;;;;;;;;;;;;;;8.69;64.15;101179.28;5015501;28;102252;-48
2022/01/23 02:09:20;;;;;;;;;;;;;;;8.67;64.44;101181.41;5015103;28;102431;-48
2022/01/23 02:14:29;;;;;;;;;;;;;;;8.67;65.14;101178.72;5009004;27;102220;-50
2022/01/23 02:17:14;;;;;;;;;;;;;;;8.66;64.39;101182.50;5003638;28;103751;-49
2022/01/23 02:25:28;;;;;;;;;;;;;;;8.66;64.77;101180.59;5010624;28;102898;-50
2022/01/23 02:53:15;;;;;;;;;;;;;;;8.65;64.23;101188.97;5006347;27;102529;-48
2022/01/23 02:55:42;;;;;;;;;;;;;;;8.64;64.48;101192.75;5007441;28;103860;-48
2022/01/23 02:58:11;;;;;;;;;;;;;;;8.66;64.62;101204.22;5014207;28;102332;-47
2022/01/23 03:00:48;;;;;;;;;;;;;;;8.64;64.58;101199.00;5011498;28;102604;-48
2022/01/23 03:03:22;;;;;;;;;;;;;;;8.65;65.29;101199.81;5005584;28;102667;-49
2022/01/23 03:06:18;;;;;;;;;;;;;;;8.65;64.72;101205.25;5009840;28;103967;-48
2022/01/23 03:14:18;;;;;;;;;;;;;;;8.64;64.33;101209.03;5004984;28;106024;-49
2022/01/23 03:30:22;;;;;;;;;;;;;;;8.63;64.89;101223.69;5011006;27;102772;-50
2022/01/23 03:32:50;;;;;;;;;;;;;;;8.65;64.81;101216.09;5011908;28;102191;-50
2022/01/23 03:35:17;;;;;;;;;;;;;;;8.64;64.79;101225.31;5012938;28;102553;-47
2022/01/23 03:37:44;;;;;;;;;;;;;;;8.63;64.32;101229.13;5011559;28;104085;-50
2022/01/23 03:40:10;;;;;;;;;;;;;;;8.63;64.40;101234.53;5009354;28;102393;-50
2022/01/23 03:42:40;;;;;;;;;;;;;;;8.63;64.72;101231.81;5009337;28;102168;-49
2022/01/23 03:50:32;;;;;;;;;;;;;;;8.63;64.46;101237.25;5011504;27;102469;-48
2022/01/23 03:52:58;;;;;;;;;;;;;;;8.63;64.18;101240.78;5012207;27;102270;-50
2022/01/23 03:55:26;;;;;;;;;;;;;;;8.62;64.69;101235.63;5019393;28;104150;-47
2022/01/23 03:57:53;;;;;;;;;;;;;;;8.63;64.35;101237.25;5010898;28;103655;-47
2022/01/23 04:00:19;;;;;;;;;;;;;;;8.62;64.52;101244.56;5015458;28;102233;-49
2022/01/23 04:02:45;;;;;;;;;;;;;;;8.62;64.49;101233.72;5017823;28;102455;-50
2022/01/23 04:05:11;;;;;;;;;;;;;;;8.62;64.45;101239.16;5016909;28;102397;-48
2022/01/23 04:07:37;;;;;;;;;;;;;;;8.63;64.78;101234.53;5013290;28;103792;-49
2022/01/23 04:10:04;;;;;;;;;;;;;;;8.62;64.46;101233.72;5014139;28;102764;-50
2022/01/23 04:33:55;;;;;;;;;;;;;;;8.61;64.43;101247.50;5005235;28;102465;-50
2022/01/23 05:01:06;;;;;;;;;;;;;;;8.61;64.38;101264.59;5011700;28;103828;-48
2022/01/23 05:04:36;;;;;;;;;;;;;;;8.60;64.71;101267.59;5015778;28;102689;-48
2022/01/23 05:06:36;;;;;;;;;;;;;;;8.61;64.72;101269.22;4993532;28;103629;-48
2022/01/23 05:09:06;;;;;;;;;;;;;;;8.60;64.26;101273.00;5015187;28;102208;-50
2022/01/23 05:11:32;;;;;;;;;;;;;;;8.61;64.18;101269.22;5013202;28;103874;-47
2022/01/23 05:14:00;;;;;;;;;;;;;;;8.60;64.69;101273.00;5015538;27;102448;-49
2022/01/23 05:16:26;;;;;;;;;;;;;;;8.61;64.93;101270.03;5010681;28;102248;-47
2022/01/23 05:18:54;;;;;;;;;;;;;;;8.61;64.55;101280.06;5016572;27;102195;-47
2022/01/23 05:23:46;;;;;;;;;;;;;;;8.60;64.91;101279.25;5014210;27;104221;-46
2022/01/23 05:26:12;;;;;;;;;;;;;;;8.61;64.16;101285.50;5012819;27;102511;-47
2022/01/23 05:28:39;;;;;;;;;;;;;;;8.60;64.46;101290.09;5015639;27;102230;-49
2022/01/23 05:31:05;;;;;;;;;;;;;;;8.61;64.25;101285.50;5012883;27;104085;-49
2022/01/23 05:33:31;;;;;;;;;;;;;;;8.60;64.38;101290.09;5013343;28;102218;-49
2022/01/23 05:35:59;;;;;;;;;;;;;;;8.61;64.29;101296.34;5013071;27;102406;-50
2022/01/23 05:38:25;;;;;;;;;;;;;;;8.61;64.74;101290.94;5014406;28;102296;-50
2022/01/23 05:40:56;;;;;;;;;;;;;;;8.61;64.60;101290.94;5011498;28;103944;-47
2022/01/23 05:43:23;;;;;;;;;;;;;;;8.60;64.70;101294.72;5014955;28;103544;-47
2022/01/23 05:45:49;;;;;;;;;;;;;;;8.60;64.61;101289.28;5004157;28;102366;-46
2022/01/23 05:48:15;;;;;;;;;;;;;;;8.60;64.05;101294.72;5011118;28;102589;-47
2022/01/23 05:50:42;;;;;;;;;;;;;;;8.60;64.49;101300.13;5009036;27;103875;-49
2022/01/23 05:53:09;;;;;;;;;;;;;;;8.60;64.17;101306.38;5015521;28;102425;-47
2022/01/23 05:55:35;;;;;;;;;;;;;;;8.61;64.85;101307.19;5014589;28;102783;-46
2022/01/23 05:58:02;;;;;;;;;;;;;;;8.60;64.27;101314.53;5010590;28;102242;-48
2022/01/23 06:00:28;;;;;;;;;;;;;;;8.61;64.68;101318.06;5009375;28;108136;-48
2022/01/23 06:02:54;;;;;;;;;;;;;;;8.61;64.56;101318.06;5012173;28;102822;-48
2022/01/23 06:05:20;;;;;;;;;;;;;;;8.61;65.12;101312.63;5014843;28;102056;-47
2022/01/23 06:07:48;;;;;;;;;;;;;;;8.60;64.27;101314.53;5013500;28;103790;-51
2022/01/23 06:10:22;;;;;;;;;;;;;;;8.62;64.13;101317.00;5012875;28;104207;-48
2022/01/23 06:12:48;;;;;;;;;;;;;;;8.61;64.08;101309.91;5011763;28;102665;-48
2022/01/23 06:15:15;;;;;;;;;;;;;;;8.61;64.35;101318.06;5014560;27;102329;-49
2022/01/23 06:17:42;;;;;;;;;;;;;;;8.61;64.12;101312.63;5011289;28;102708;-49
2022/01/23 06:20:10;;;;;;;;;;;;;;;8.61;64.75;101312.63;5013609;28;103874;-50
2022/01/23 06:22:36;;;;;;;;;;;;;;;8.61;64.58;101323.47;5011382;27;102495;-50
2022/01/23 06:25:05;;;;;;;;;;;;;;;8.62;64.35;101322.44;5015424;27;102268;-48
2022/01/23 06:27:33;;;;;;;;;;;;;;;8.61;64.46;101323.47;5014480;27;102888;-49
2022/01/23 06:29:59;;;;;;;;;;;;;;;8.60;63.89;101328.09;5010875;28;103947;-49
2022/01/23 06:32:25;;;;;;;;;;;;;;;8.60;63.93;101329.97;5009356;28;102835;-48
2022/01/23 06:34:51;;;;;;;;;;;;;;;8.61;64.62;101323.47;5010787;28;102239;-49
2022/01/23 06:37:17;;;;;;;;;;;;;;;8.61;64.03;101323.47;5011265;27;102652;-49
2022/01/23 06:39:43;;;;;;;;;;;;;;;8.61;64.77;101331.63;5012856;27;103872;-46
2022/01/23 06:42:09;;;;;;;;;;;;;;;8.62;64.92;101325.16;5009948;28;102137;-49
2022/01/23 06:44:37;;;;;;;;;;;;;;;8.62;64.55;101330.56;5009840;28;102440;-47
2022/01/23 06:47:04;;;;;;;;;;;;;;;8.61;64.61;101331.63;5008062;28;102374;-50
2022/01/23 06:49:31;;;;;;;;;;;;;;;8.61;64.96;101331.63;5002514;28;104061;-50
2022/01/23 06:51:57;;;;;;;;;;;;;;;8.62;64.69;101344.16;5012423;28;102477;-47
2022/01/23 06:54:23;;;;;;;;;;;;;;;8.61;64.50;101335.16;5011216;28;103422;-48
2022/01/23 06:56:49;;;;;;;;;;;;;;;8.62;64.94;101346.84;5010403;28;102326;-48
2022/01/23 06:59:15;;;;;;;;;;;;;;;8.62;64.92;101344.16;5011584;28;104041;-48
2022/01/23 07:01:42;;;;;;;;;;;;;;;8.61;64.79;101343.28;5012285;27;102326;-49
2022/01/23 07:04:08;;;;;;;;;;;;;;;8.62;64.39;101341.44;5004937;28;102230;-48
2022/01/23 07:06:34;;;;;;;;;;;;;;;8.62;64.18;101336.81;5026196;27;102258;-48
2022/01/23 07:09:00;;;;;;;;;;;;;;;8.63;64.70;101334.94;5006738;27;103956;-49
2022/01/23 07:11:26;;;;;;;;;;;;;;;8.62;64.72;101341.44;5013142;28;102996;-47
2022/01/23 07:13:52;;;;;;;;;;;;;;;8.63;64.67;101348.50;5012860;27;102127;-50
2022/01/23 07:16:18;;;;;;;;;;;;;;;8.63;64.18;101345.78;5010534;28;102425;-47
2022/01/23 07:18:46;;;;;;;;;;;;;;;8.62;64.52;101344.16;5010752;28;102903;-49
2022/01/23 07:21:12;;;;;;;;;;;;;;;8.62;64.18;101346.84;5013904;28;102540;-50
2022/01/23 07:23:38;;;;;;;;;;;;;;;8.61;64.28;101340.59;5013130;28;104136;-50
2022/01/23 07:26:06;;;;;;;;;;;;;;;8.62;64.36;101353.09;5013183;28;102269;-48
2022/01/23 07:28:38;;;;;;;;;;;;;;;8.63;64.90;101359.34;5007088;28;103954;-46
2022/01/23 07:31:06;;;;;;;;;;;;;;;8.62;64.00;101363.13;5013499;28;102452;-47
2022/01/23 07:33:33;;;;;;;;;;;;;;;8.62;64.16;101363.97;5012001;28;103734;-48
2022/01/23 07:36:02;;;;;;;;;;;;;;;8.63;64.15;101370.19;5015244;28;102767;-46
2022/01/23 07:38:30;;;;;;;;;;;;;;;8.62;64.15;101371.28;5004168;28;104108;-48
2022/01/23 07:40:56;;;;;;;;;;;;;;;8.63;65.04;101375.63;5013031;28;102123;-46
2022/01/23 07:43:22;;;;;;;;;;;;;;;8.61;64.79;101375.03;5009868;28;102222;-48
2022/01/23 07:45:48;;;;;;;;;;;;;;;8.62;64.92;101368.56;5010711;28;103062;-46
2022/01/23 07:48:14;;;;;;;;;;;;;;;8.62;63.98;101368.56;5008244;27;103791;-49
2022/01/23 07:50:41;;;;;;;;;;;;;;;8.61;64.89;101366.91;5004235;28;103462;-47
2022/01/23 07:53:08;;;;;;;;;;;;;;;8.61;64.58;101367.72;5011200;28;102206;-46
2022/01/23 07:55:35;;;;;;;;;;;;;;;8.62;64.32;101369.38;5014023;27;102237;-48
2022/01/23 07:58:12;;;;;;;;;;;;;;;8.62;64.42;101374.00;5008848;28;103843;-46
2022/01/23 08:00:39;;;;;;;;;;;;;;;8.61;64.27;101361.47;5011080;28;106054;-49
2022/01/23 08:03:05;;;;;;;;;;;;;;;8.61;63.89;101364.19;5013372;27;106271;-50
2022/01/23 08:05:31;;;;;;;;;;;;;;;8.61;64.59;101366.91;5006897;28;102635;-46
2022/01/23 08:07:58;;;;;;;;;;;;;;;8.61;65.07;101367.72;5011761;27;103860;-47
2022/01/23 08:10:25;;;;;;;;;;;;;;;8.62;64.48;101374.00;5004897;28;102245;-50
2022/01/23 08:12:51;;;;;;;;;;;;;;;8.62;64.09;101374.00;5011808;28;103103;-49
2022/01/23 08:15:18;;;;;;;;;;;;;;;8.61;64.98;101373.13;5012781;28;102617;-51
2022/01/23 08:17:44;;;;;;;;;;;;;;;8.61;64.77;101372.31;5012437;28;103937;-49
2022/01/23 08:20:10;;;;;;;;;;;;;;;8.61;64.72;101378.56;5011733;27;102142;-50
2022/01/23 08:22:37;;;;;;;;;;;;;;;8.61;64.63;101381.28;5012766;28;102544;-51
2022/01/23 08:25:03;;;;;;;;;;;;;;;8.60;64.42;101382.34;5017534;27;102246;-51
2022/01/23 08:27:31;;;;;;;;;;;;;;;8.61;63.90;101391.31;5017111;27;104120;-48
2022/01/23 08:29:58;;;;;;;;;;;;;;;8.61;64.27;101388.59;5010651;27;102419;-50
2022/01/23 08:32:24;;;;;;;;;;;;;;;8.60;64.37;101382.34;5010752;28;102305;-48
2022/01/23 08:34:50;;;;;;;;;;;;;;;8.60;64.24;101381.53;5005293;28;102285;-51
2022/01/23 08:37:16;;;;;;;;;;;;;;;8.60;64.86;101376.09;5017203;27;103860;-49
2022/01/23 08:39:42;;;;;;;;;;;;;;;8.60;64.70;101376.94;5012855;27;102328;-49
2022/01/23 08:42:09;;;;;;;;;;;;;;;8.61;64.34;101375.03;5014401;27;102655;-49
2022/01/23 08:44:37;;;;;;;;;;;;;;;8.61;64.77;101372.31;5009079;28;102460;-48
2022/01/23 08:47:04;;;;;;;;;;;;;;;8.59;64.18;101375.28;5009491;27;104116;-49
2022/01/23 08:49:31;;;;;;;;;;;;;;;8.61;64.87;101372.31;5004576;27;102309;-51
2022/01/23 08:51:57;;;;;;;;;;;;;;;8.60;63.99;101379.63;5005034;27;102335;-51
2022/01/23 08:54:24;;;;;;;;;;;;;;;8.61;64.80;101372.31;5010329;27;102657;-47
2022/01/23 08:56:50;;;;;;;;;;;;;;;8.61;64.27;101380.47;5003807;28;104029;-49
2022/01/23 08:59:16;;;;;;;;;;;;;;;8.62;64.02;101382.13;5008322;27;102240;-52
2022/01/23 09:01:43;;;;;;;;;;;;;;;8.62;64.31;101371.28;5012080;28;102253;-51
2022/01/23 09:04:12;;;;;;;;;;;;;;;8.60;64.28;101376.09;5011753;28;102608;-49
2022/01/23 09:06:38;;;;;;;;;;;;;;;8.60;64.68;101374.22;5016804;27;104480;-48
2022/01/23 09:09:06;;;;;;;;;;;;;;;8.60;64.42;101376.09;5001803;27;102600;-49
2022/01/23 09:11:40;;;;;;;;;;;;;;;8.62;64.74;101379.41;5009961;27;102118;-46
2022/01/23 09:14:07;;;;;;;;;;;;;;;8.61;64.06;101378.56;5009378;27;102445;-47
2022/01/23 09:16:33;;;;;;;;;;;;;;;8.61;64.51;101380.47;5019399;28;103805;-48
2022/01/23 09:19:01;;;;;;;;;;;;;;;8.61;64.47;101380.47;5029719;28;102080;-51
2022/01/23 09:21:27;;;;;;;;;;;;;;;8.60;64.02;101376.94;5018856;28;102087;-49
2022/01/23 09:23:53;;;;;;;;;;;;;;;8.60;63.66;101376.09;5017812;28;102640;-50
2022/01/23 09:26:22;;;;;;;;;;;;;;;8.61;63.82;101377.75;5016521;28;103899;-50
2022/01/23 09:28:48;;;;;;;;;;;;;;;8.61;63.94;101372.31;5018376;27;102362;-51
2022/01/23 09:31:25;;;;;;;;;;;;;;;8.61;64.22;101377.75;5016863;28;102514;-49
2022/01/23 09:33:52;;;;;;;;;;;;;;;8.60;64.55;101376.94;5016482;27;102120;-48
2022/01/23 09:36:19;;;;;;;;;;;;;;;8.60;63.78;101370.69;5016780;27;103836;-50
2022/01/23 09:38:45;;;;;;;;;;;;;;;8.61;64.14;101377.75;5016741;27;102574;-48
2022/01/23 09:41:14;;;;;;;;;;;;;;;8.61;64.59;101366.91;5016022;27;102106;-50
2022/01/23 09:43:41;;;;;;;;;;;;;;;8.60;64.12;101376.09;5016550;28;102246;-49
2022/01/23 09:46:08;;;;;;;;;;;;;;;8.61;64.29;101383.16;5007096;28;103936;-49
2022/01/23 09:48:35;;;;;;;;;;;;;;;8.60;64.75;101386.97;5013653;28;102293;-47
2022/01/23 09:51:01;;;;;;;;;;;;;;;8.60;64.77;101389.69;5022941;27;102289;-50
2022/01/23 09:53:29;;;;;;;;;;;;;;;8.60;64.19;101378.81;5013062;27;102241;-49
2022/01/23 09:55:59;;;;;;;;;;;;;;;8.60;64.04;101378.81;5013608;27;103891;-49
2022/01/23 09:58:26;;;;;;;;;;;;;;;8.60;64.25;101386.97;5014697;28;102645;-48
2022/01/23 10:00:52;;;;;;;;;;;;;;;8.59;63.79;101380.72;5018288;28;102512;-50
2022/01/23 10:03:19;;;;;;;;;;;;;;;8.60;64.71;101386.97;5019800;27;102114;-50
2022/01/23 10:05:48;;;;;;;;;;;;;;;8.59;64.37;101379.91;5010539;28;103563;-47
2022/01/23 10:08:15;;;;;;;;;;;;;;;8.60;64.17;101384.25;5020112;27;102092;-48
2022/01/23 10:10:42;;;;;;;;;;;;;;;8.60;64.11;101386.97;5007797;27;102108;-47
2022/01/23 10:13:10;;;;;;;;;;;;;;;8.60;64.26;101390.50;5026567;27;102359;-48
2022/01/23 10:15:41;;;;;;;;;;;;;;;8.59;63.84;101391.56;5007968;28;104068;-49
2022/01/23 10:18:07;;;;;;;;;;;;;;;8.60;64.34;101386.97;5017684;27;102098;-48
2022/01/23 10:20:33;;;;;;;;;;;;;;;8.59;63.56;101391.56;5017006;28;102147;-46
2022/01/23 10:22:59;;;;;;;;;;;;;;;8.60;64.69;101392.38;5017142;28;102214;-47
2022/01/23 10:25:27;;;;;;;;;;;;;;;8.61;64.29;101394.03;5012426;27;103880;-49
2022/01/23 10:28:03;;;;;;;;;;;;;;;8.60;64.23;101390.50;5017862;27;102322;-50
2022/01/23 10:30:30;;;;;;;;;;;;;;;8.59;63.80;101388.03;5009575;28;102040;-50
2022/01/23 10:32:58;;;;;;;;;;;;;;;8.58;64.04;101389.94;5017312;28;102088;-48
2022/01/23 10:35:24;;;;;;;;;;;;;;;8.60;64.58;101403.25;5018947;27;103939;-51
2022/01/23 10:37:52;;;;;;;;;;;;;;;8.60;64.23;101395.09;5016557;27;102235;-49
2022/01/23 10:40:25;;;;;;;;;;;;;;;8.59;64.38;101397.00;5015350;28;102173;-47
2022/01/23 10:50:44;;;;;;;;;;;;;;;8.58;64.01;101380.94;4976946;28;102144;-51
2022/01/23 10:53:10;;;;;;;;;;;;;;;8.58;63.70;101384.50;4976337;28;105377;-49
2022/01/23 10:55:37;;;;;;;;;;;;;;;8.58;64.12;101383.66;4976120;28;103417;-46
2022/01/23 10:58:06;;;;;;;;;;;;;;;8.59;64.58;101382.59;4975524;28;102677;-50
2022/01/23 11:00:35;;;;;;;;;;;;;;;8.58;64.00;101378.22;4974759;28;102125;-46
2022/01/23 11:03:12;;;;;;;;;;;;;;;8.58;63.88;101383.66;4981852;28;102233;-48
2022/01/23 11:05:39;;;;;;;;;;;;;;;8.57;63.97;101385.53;4980752;28;104187;-47
2022/01/23 11:08:17;;;;;;;;;;;;;;;8.58;64.49;101394.50;4977068;28;101942;-51
2022/01/23 11:10:51;;;;;;;;;;;;;;;8.57;63.93;101390.16;4978501;28;102073;-49
2022/01/23 11:19:15;;;;;;;;;;;;;;;8.57;64.21;101390.16;4976019;28;102132;-48
2022/01/23 11:21:42;;;;;;;;;;;;;;;8.57;64.14;101392.88;4977922;28;102028;-47
2022/01/23 11:24:08;;;;;;;;;;;;;;;8.56;63.65;101402.09;4977313;28;102146;-49
2022/01/23 11:26:34;;;;;;;;;;;;;;;8.56;64.05;101407.50;4976572;28;103713;-48
2022/01/23 11:29:07;;;;;;;;;;;;;;;8.56;64.62;101407.50;4974374;28;102710;-49
2022/01/23 11:31:33;;;;;;;;;;;;;;;8.55;64.05;101412.13;4974394;28;102301;-49
2022/01/23 11:34:01;;;;;;;;;;;;;;;8.55;64.59;101400.44;4972559;28;105607;-49
2022/01/23 11:36:29;;;;;;;;;;;;;;;8.56;63.68;101412.94;4970494;28;104018;-49
2022/01/23 11:39:00;;;;;;;;;;;;;;;8.54;64.47;101401.47;4973497;28;102360;-47
2022/01/23 11:55:29;;;;;;;;;;;;;;;8.54;64.35;101415.88;5011336;28;102000;-50
2022/01/23 11:57:55;;;;;;;;;;;;;;;8.54;64.03;101421.28;5015705;28;103708;-48
2022/01/23 12:00:23;;;;;;;;;;;;;;;8.54;64.31;101425.91;5017528;27;102161;-48
2022/01/23 12:03:07;;;;;;;;;;;;;;;8.53;64.27;101416.94;5013363;27;103048;-50
2022/01/23 12:05:34;;;;;;;;;;;;;;;8.54;63.55;101434.84;5004143;28;103695;-50
2022/01/23 12:08:28;;;;;;;;;;;;;;;8.53;63.95;101435.94;5019072;28;103923;-47
2022/01/23 12:16:32;;;;;;;;;;;;;;;8.54;63.74;101442.19;5016667;28;102933;-49
2022/01/23 12:19:13;;;;;;;;;;;;;;;8.54;64.27;101443.00;5012696;27;103983;-48
2022/01/23 12:21:39;;;;;;;;;;;;;;;8.54;63.82;101442.19;5012274;28;102044;-49
2022/01/23 12:24:09;;;;;;;;;;;;;;;8.54;64.22;101444.88;5010755;28;103061;-49
2022/01/23 12:26:37;;;;;;;;;;;;;;;8.54;63.74;101447.59;5020448;27;102662;-50
2022/01/23 12:29:10;;;;;;;;;;;;;;;8.55;63.73;101460.13;5014073;28;104138;-47
2022/01/23 12:31:37;;;;;;;;;;;;;;;8.55;64.23;101454.69;5019269;28;101994;-47
2022/01/23 12:34:03;;;;;;;;;;;;;;;8.55;63.74;101450.09;5020433;27;102044;-49
2022/01/23 12:36:31;;;;;;;;;;;;;;;8.56;63.37;101453.63;5018099;27;102724;-47
2022/01/23 12:38:58;;;;;;;;;;;;;;;8.55;63.87;101466.38;5010570;28;104025;-49
2022/01/23 12:41:30;;;;;;;;;;;;;;;8.55;64.42;101465.56;5016686;28;102137;-46
2022/01/23 12:43:59;;;;;;;;;;;;;;;8.56;64.19;101469.91;5014432;27;102220;-47
2022/01/23 12:46:30;;;;;;;;;;;;;;;8.55;63.91;101466.38;5019223;28;102561;-48
2022/01/23 12:48:59;;;;;;;;;;;;;;;8.55;63.82;101460.94;5011423;28;107943;-50
2022/01/23 12:51:36;;;;;;;;;;;;;;;8.54;63.63;101464.69;5012736;28;102313;-51
2022/01/23 12:54:23;;;;;;;;;;;;;;;8.55;63.65;101465.56;5009799;28;102295;-47
2022/01/23 12:56:51;;;;;;;;;;;;;;;8.55;64.21;101465.56;5016031;27;103130;-48
2022/01/23 12:59:23;;;;;;;;;;;;;;;8.55;64.54;101465.56;5006082;28;103749;-50
2022/01/23 13:01:55;;;;;;;;;;;;;;;8.55;64.13;101474.50;5009667;28;102158;-49
2022/01/23 13:04:21;;;;;;;;;;;;;;;8.55;64.28;101465.56;5021498;27;102230;-47
2022/01/23 13:06:52;;;;;;;;;;;;;;;8.55;64.27;101470.97;5013455;28;102370;-50
2022/01/23 13:09:25;;;;;;;;;;;;;;;8.55;63.79;101465.56;5015012;28;103935;-48
2022/01/23 13:11:54;;;;;;;;;;;;;;;8.54;63.90;101472.03;5012625;28;102874;-50
2022/01/23 13:14:27;;;;;;;;;;;;;;;8.54;63.54;101477.44;5017550;27;102247;-49
2022/01/23 13:17:34;;;;;;;;;;;;;;;8.55;63.50;101479.94;5017312;27;102602;-48
2022/01/23 13:26:21;;;;;;;;;;;;;;;8.54;64.32;101486.41;5012060;28;103936;-50
2022/01/23 13:30:45;;;;;;;;;;;;;;;8.54;64.28;101501.84;5007728;28;103829;-49
2022/01/23 13:33:19;;;;;;;;;;;;;;;8.55;63.91;101503.53;5007662;27;102334;-48
2022/01/23 13:35:50;;;;;;;;;;;;;;;8.53;63.34;101506.47;5010037;28;102195;-48
2022/01/23 13:38:17;;;;;;;;;;;;;;;8.53;63.73;101506.47;5015786;27;102699;-49
2022/01/23 13:40:44;;;;;;;;;;;;;;;8.53;64.09;101511.91;5015870;27;103699;-49
2022/01/23 13:59:28;;;;;;;;;;;;;;;8.53;64.08;101508.34;5005738;28;102228;-50
2022/01/23 14:04:35;;;;;;;;;;;;;;;8.51;63.97;101519.47;5012845;28;102651;-49
2022/01/23 14:07:01;;;;;;;;;;;;;;;8.51;63.40;101524.88;5003932;28;102259;-47
2022/01/23 14:09:27;;;;;;;;;;;;;;;8.52;63.27;101520.28;5014120;28;102392;-49
2022/01/23 14:11:54;;;;;;;;;;;;;;;8.52;63.66;101514.84;5003551;27;105192;-49
2022/01/23 14:14:21;;;;;;;;;;;;;;;8.51;63.63;101518.63;5007979;28;104320;-50
2022/01/23 14:16:54;;;;;;;;;;;;;;;8.51;63.71;101518.63;5002389;27;102077;-47
2022/01/23 14:19:24;;;;;;;;;;;;;;;8.51;63.54;101518.63;5017075;28;102458;-50
2022/01/23 14:21:51;;;;;;;;;;;;;;;8.52;63.63;101525.72;5013362;28;103934;-51
2022/01/23 14:24:22;;;;;;;;;;;;;;;8.50;63.87;101534.06;5017022;28;102337;-48
2022/01/23 14:26:58;;;;;;;;;;;;;;;8.51;63.61;101534.88;5008883;27;102638;-47
2022/01/23 14:29:24;;;;;;;;;;;;;;;8.51;63.58;101540.31;5008416;27;102421;-47
2022/01/23 14:32:03;;;;;;;;;;;;;;;8.52;63.51;101542.00;5012221;28;103889;-47
2022/01/23 14:34:31;;;;;;;;;;;;;;;8.52;63.45;101550.13;5017050;27;102432;-50
2022/01/23 14:36:59;;;;;;;;;;;;;;;8.51;63.51;101551.16;5000870;28;102380;-50
2022/01/23 14:39:25;;;;;;;;;;;;;;;8.53;63.23;101565.34;5011517;27;103072;-49
2022/01/23 14:41:51;;;;;;;;;;;;;;;8.52;63.85;101561.78;5014432;28;103779;-50
2022/01/23 14:44:18;;;;;;;;;;;;;;;8.53;63.50;101559.91;5005459;27;102086;-50
2022/01/23 14:46:45;;;;;;;;;;;;;;;8.53;64.15;101571.56;5002099;28;102397;-50
2022/01/23 14:49:20;;;;;;;;;;;;;;;8.53;64.14;101579.72;5018113;27;102227;-50
2022/01/23 14:51:49;;;;;;;;;;;;;;;8.53;63.90;101579.72;5015436;27;102507;-49
2022/01/23 14:54:16;;;;;;;;;;;;;;;8.53;63.28;101581.63;5011655;28;102384;-50
2022/01/23 14:56:43;;;;;;;;;;;;;;;8.51;63.38;101587.28;5007175;27;103207;-49
2022/01/23 14:59:09;;;;;;;;;;;;;;;8.52;63.22;101585.41;5008628;28;102644;-47
2022/01/23 15:01:36;;;;;;;;;;;;;;;8.53;63.70;101597.88;5006075;27;104044;-49
2022/01/23 15:04:05;;;;;;;;;;;;;;;8.52;63.77;101602.50;5008619;28;102170;-47
2022/01/23 15:06:31;;;;;;;;;;;;;;;8.54;63.93;101604.97;4999247;28;104600;-49
2022/01/23 15:09:03;;;;;;;;;;;;;;;8.53;63.63;101611.44;5001904;27;105205;-48
2022/01/23 15:11:28;;;;;;;;;;;;;;;8.54;63.42;101622.06;4997945;28;108196;-47
2022/01/23 15:13:54;;;;;;;;;;;;;;;8.55;64.11;101622.91;5009726;28;102190;-48
2022/01/23 15:16:20;;;;;;;;;;;;;;;8.54;63.96;101622.06;5008653;28;102704;-50
2022/01/23 15:18:46;;;;;;;;;;;;;;;8.54;64.12;101615.81;5004887;28;102177;-48
2022/01/23 15:21:13;;;;;;;;;;;;;;;8.55;63.36;101617.47;5003981;27;104125;-49
2022/01/23 15:23:41;;;;;;;;;;;;;;;8.54;63.81;101618.53;5000445;27;102420;-46
2022/01/23 15:26:08;;;;;;;;;;;;;;;8.54;63.50;101618.53;5026880;27;104574;-49
2022/01/23 15:28:34;;;;;;;;;;;;;;;8.54;63.66;101632.09;5013550;28;102321;-46
2022/01/23 15:31:00;;;;;;;;;;;;;;;8.54;63.35;101629.38;5000454;28;106417;-47
2022/01/23 15:33:26;;;;;;;;;;;;;;;8.54;63.78;101642.94;5006306;28;102576;-47
2022/01/23 15:35:53;;;;;;;;;;;;;;;8.53;63.55;101644.84;5012581;27;102331;-48
2022/01/23 15:38:21;;;;;;;;;;;;;;;8.55;63.59;101655.47;5005493;28;102700;-46
2022/01/23 15:40:48;;;;;;;;;;;;;;;8.54;63.79;101659.22;5008333;28;103892;-46
2022/01/23 15:43:15;;;;;;;;;;;;;;;8.55;63.99;101663.59;5006476;27;102162;-48
2022/01/23 15:45:42;;;;;;;;;;;;;;;8.54;63.51;101664.66;5007285;27;103903;-48
2022/01/23 15:48:08;;;;;;;;;;;;;;;8.54;63.91;101670.91;5011720;28;103686;-49
2022/01/23 15:50:35;;;;;;;;;;;;;;;8.54;63.75;101670.91;5028077;27;103875;-47
2022/01/23 15:53:01;;;;;;;;;;;;;;;8.55;63.82;101682.59;5007954;28;102743;-49
2022/01/23 15:55:28;;;;;;;;;;;;;;;8.54;63.74;101681.75;5006169;28;102532;-48
2022/01/23 15:57:55;;;;;;;;;;;;;;;8.46;63.06;101676.66;5006800;28;102218;-50
2022/01/23 16:00:23;;;;;;;;;;;;;;;8.39;62.51;101684.91;5010979;27;104044;-48
2022/01/23 16:02:49;;;;;;;;;;;;;;;8.33;61.40;101695.81;5010615;27;102506;-50